Jsp Bora — V2CQ4 — position and weather

sailwx.info

Track history (hours):
 
Tides and Currents Weather Stations Pressure Air Temp Water Temp Dewpoint Dewpoint Depression Visibility Wind Speed Wind Dir Waves Ship Positions

Jsp Bora

Last reported at 2017-Jan-16 19:26 UTC. Time now 2017-Jan-22 14:19 UTC.
Position N 38°12' E 012°19'.

Length 148 m; draft 8.5 m.

Type: Ship (hazmat cat A). MMSI: 305079000.

Date/timePositionNaut miles runAvg speedWind from/ knotsBaromVisibWave heightAir tempDewpointWater temp
2017-Jan-16 19:26N 38°12' E 012°19'4212.8
2017-Jan-16 16:08N 38°19' E 013°12'712.1
2017-Jan-16 15:33N 38°20' E 013°21'1312.1
2017-Jan-16 14:31N 38°20' E 013°37'4113.3
2017-Jan-16 11:27N 38°19' E 014°29'1213.6
2017-Jan-16 10:33N 38°19' E 014°44'1413.6
2017-Jan-16 09:33N 38°19' E 015°01'1313.2
2017-Jan-16 08:33N 38°21' E 015°18'1313.2
2017-Jan-16 07:33N 38°24' E 015°35'1313.6
2017-Jan-16 06:34N 38°27' E 015°52'3 2.6
2017-Jan-16 05:33N 38°28' E 015°55'0 0.0
2017-Jan-16 04:23N 38°28' E 015°55'0 0.0
2017-Jan-16 03:33N 38°28' E 015°55'0 0.0
2017-Jan-16 02:33N 38°28' E 015°55'0 0.0
2017-Jan-16 01:28N 38°28' E 015°55'0 0.0
2017-Jan-16 00:10N 38°28' E 015°55'0 0.0
2017-Jan-15 23:10N 38°28' E 015°55'0 0.0
2017-Jan-15 22:10N 38°28' E 015°55'0 0.0
2017-Jan-15 21:30N 38°28' E 015°55'0 0.0
2017-Jan-15 20:33N 38°28' E 015°55'0 0.0
2017-Jan-15 19:33N 38°28' E 015°55'0 0.0
2017-Jan-15 18:21N 38°28' E 015°55'0 0.0
2017-Jan-15 17:31N 38°28' E 015°55'0 0.0
2017-Jan-15 16:31N 38°28' E 015°55'0 0.0
2017-Jan-15 15:31N 38°28' E 015°55'0 0.0
2017-Jan-15 14:31N 38°28' E 015°55'0 0.0
2017-Jan-15 13:27N 38°28' E 015°55'0 0.0
2017-Jan-15 12:24N 38°28' E 015°55'0 0.0
2017-Jan-15 11:33N 38°28' E 015°55'0 0.0
2017-Jan-15 10:27N 38°28' E 015°55'0 0.0
2017-Jan-15 09:33N 38°28' E 015°55'0 0.0
2017-Jan-15 08:33N 38°28' E 015°55'0 0.0
2017-Jan-15 07:33N 38°28' E 015°55'0 0.0
2017-Jan-15 06:15N 38°28' E 015°55'0 0.0
2017-Jan-15 05:30N 38°28' E 015°55'0 0.0
2017-Jan-15 04:30N 38°28' E 015°55'0 0.0
2017-Jan-15 03:24N 38°28' E 015°55'0 0.0
2017-Jan-15 02:30N 38°28' E 015°55'0 0.0
2017-Jan-15 01:24N 38°28' E 015°55'0 0.0
2017-Jan-15 00:27N 38°28' E 015°55'0 0.0
2017-Jan-14 23:30N 38°28' E 015°55'0 0.0
2017-Jan-14 22:18N 38°28' E 015°55'0 0.0
2017-Jan-14 21:30N 38°28' E 015°55'0 0.0
2017-Jan-14 20:24N 38°28' E 015°55'0 0.0
2017-Jan-14 19:29N 38°28' E 015°55'0 0.3
2017-Jan-14 18:33N 38°28' E 015°54'4 3.9
2017-Jan-14 17:33N 38°28' E 015°49'3 3.1
2017-Jan-14 16:33N 38°29' E 015°46'1 0.8
2017-Jan-14 15:33N 38°28' E 015°46'10 9.8
2017-Jan-14 14:33N 38°31' E 015°34'3 2.9
2017-Jan-14 13:33N 38°32' E 015°30'7 7.0
2017-Jan-14 12:32N 38°32' E 015°21'1 0.6
2017-Jan-14 11:34N 38°32' E 015°22'2 1.8
2017-Jan-14 10:33N 38°31' E 015°24'1 1.5
2017-Jan-14 09:33N 38°30' E 015°26'2 1.9
2017-Jan-14 08:34N 38°30' E 015°28'2 2.2
2017-Jan-14 07:34N 38°29' E 015°25'8 7.6
2017-Jan-14 06:33N 38°31' E 015°16'1 0.8
2017-Jan-14 05:33N 38°32' E 015°17'2 1.5
2017-Jan-14 04:33N 38°32' E 015°19'2 2.0
2017-Jan-14 03:34N 38°33' E 015°21'12 2.9
2017-Jan-13 23:33N 38°33' E 015°36'3 2.5
2017-Jan-13 22:33N 38°34' E 015°39'2 1.6
2017-Jan-13 21:33N 38°34' E 015°41'2 2.3
2017-Jan-13 20:33N 38°35' E 015°38'2 2.3
2017-Jan-13 19:33N 38°35' E 015°36'2 1.7
2017-Jan-13 18:04N 38°34' E 015°33'1 1.2
2017-Jan-13 17:33N 38°34' E 015°32'1 1.2
2017-Jan-13 16:33N 38°34' E 015°30'1 1.1
2017-Jan-13 15:34N 38°33' E 015°29'1 1.1
2017-Jan-13 14:33N 38°33' E 015°28'1 1.3
2017-Jan-13 13:31N 38°32' E 015°27'1 1.2
2017-Jan-13 12:34N 38°31' E 015°26'1 0.8
2017-Jan-13 11:34N 38°31' E 015°25'1 0.8
2017-Jan-13 10:31N 38°30' E 015°24'3 3.3
2017-Jan-13 09:32N 38°33' E 015°26'1313.4
2017-Jan-13 08:33N 38°43' E 015°37'1312.3
2017-Jan-13 07:32N 38°52' E 015°48'2 1.2
2017-Jan-13 06:20N 38°52' E 015°46'1 1.3
2017-Jan-13 05:33N 38°51' E 015°45'1 1.2
2017-Jan-13 04:33N 38°51' E 015°44'1 1.4
2017-Jan-13 03:34N 38°49' E 015°43'1 1.3
2017-Jan-13 02:33N 38°48' E 015°42'1 1.3
2017-Jan-13 01:33N 38°47' E 015°41'1 1.3
2017-Jan-13 00:31N 38°46' E 015°40'1 1.2
2017-Jan-12 23:33N 38°45' E 015°39'1 1.4
2017-Jan-12 22:34N 38°44' E 015°38'1 1.4
2017-Jan-12 21:33N 38°43' E 015°37'2 1.2
2017-Jan-12 19:33N 38°40' E 015°37'1 0.9
2017-Jan-12 18:33N 38°39' E 015°37'1 0.6
2017-Jan-12 17:32N 38°39' E 015°37'1 0.5
2017-Jan-12 16:34N 38°38' E 015°37'0 0.5
2017-Jan-12 15:34N 38°38' E 015°37'0 0.5
2017-Jan-12 14:33N 38°37' E 015°36'1 0.6
2017-Jan-12 13:33N 38°37' E 015°36'1 0.6
2017-Jan-12 12:33N 38°36' E 015°36'9 8.7
2017-Jan-12 11:33N 38°28' E 015°40'3 2.7
2017-Jan-12 10:32N 38°26' E 015°41'1 0.6
2017-Jan-12 09:33N 38°26' E 015°41'1 0.6
2017-Jan-12 08:34N 38°27' E 015°41'0 0.5
2017-Jan-12 07:34N 38°27' E 015°41'0 0.4
2017-Jan-12 06:34N 38°28' E 015°41'0 0.4
2017-Jan-12 05:33N 38°28' E 015°40'0 0.4
2017-Jan-12 04:34N 38°28' E 015°40'0 0.5
2017-Jan-12 03:30N 38°29' E 015°40'0 0.4
2017-Jan-12 02:33N 38°29' E 015°39'0 0.4
2017-Jan-12 01:33N 38°29' E 015°39'1 0.5
2017-Jan-12 00:33N 38°29' E 015°38'1 0.6
2017-Jan-11 23:33N 38°29' E 015°37'1 0.6
2017-Jan-11 22:33N 38°30' E 015°37'1 0.5
2017-Jan-11 21:34N 38°30' E 015°36'0 0.4
2017-Jan-11 20:32N 38°30' E 015°36'0 0.4
2017-Jan-11 19:33N 38°30' E 015°35'0 0.4
2017-Jan-11 18:33N 38°30' E 015°35'0 0.1
2017-Jan-11 17:33N 38°30' E 015°35'0 0.3
2017-Jan-11 16:33N 38°30' E 015°35'0 0.5
2017-Jan-11 15:34N 38°30' E 015°35'7 7.3
2017-Jan-11 14:34N 38°23' E 015°32'1110.4
2017-Jan-11 13:32N 38°21' E 015°19'1010.3
2017-Jan-11 12:32N 38°19' E 015°06'1010.4
2017-Jan-11 11:32N 38°18' E 014°53'1010.1
2017-Jan-11 10:33N 38°18' E 014°40'10 9.7
2017-Jan-11 09:33N 38°19' E 014°28'13 9.6
2017-Jan-11 08:09N 38°19' E 014°11'6 9.4
2017-Jan-11 07:34N 38°19' E 014°03'10 9.5
2017-Jan-11 06:33N 38°19' E 013°51'1010.2
2017-Jan-11 05:33N 38°20' E 013°38'10 9.8
2017-Jan-11 04:33N 38°20' E 013°26'10 9.6
2017-Jan-11 03:33N 38°20' E 013°13'1010.2
2017-Jan-11 02:33N 38°19' E 013°01'1111.1
2017-Jan-11 01:32N 38°19' E 012°46'10 9.9
2017-Jan-11 00:34N 38°18' E 012°34'  
Track history (hours):
 
Tides and Currents Weather Stations Pressure Air Temp Water Temp Dewpoint Dewpoint Depression Visibility Wind Speed Wind Dir Waves Ship Positions

Jsp Bora

Last reported at 2017-Jan-16 19:26 UTC. Time now 2017-Jan-22 14:19 UTC.
Position N 38°12' E 012°19'.

Length 148 m; draft 8.5 m.

Type: Ship (hazmat cat A). MMSI: 305079000.

Date/timePositionNaut miles runAvg speedWind from/ knotsBaromVisibWave heightAir tempDewpointWater temp
2017-Jan-16 19:26N 38°12' E 012°19'4212.8
2017-Jan-16 16:08N 38°19' E 013°12'712.1
2017-Jan-16 15:33N 38°20' E 013°21'1312.1
2017-Jan-16 14:31N 38°20' E 013°37'4113.3
2017-Jan-16 11:27N 38°19' E 014°29'1213.6
2017-Jan-16 10:33N 38°19' E 014°44'1413.6
2017-Jan-16 09:33N 38°19' E 015°01'1313.2
2017-Jan-16 08:33N 38°21' E 015°18'1313.2
2017-Jan-16 07:33N 38°24' E 015°35'1313.6
2017-Jan-16 06:34N 38°27' E 015°52'3 2.6
2017-Jan-16 05:33N 38°28' E 015°55'0 0.0
2017-Jan-16 04:23N 38°28' E 015°55'0 0.0
2017-Jan-16 03:33N 38°28' E 015°55'0 0.0
2017-Jan-16 02:33N 38°28' E 015°55'0 0.0
2017-Jan-16 01:28N 38°28' E 015°55'0 0.0
2017-Jan-16 00:10N 38°28' E 015°55'0 0.0
2017-Jan-15 23:10N 38°28' E 015°55'0 0.0
2017-Jan-15 22:10N 38°28' E 015°55'0 0.0
2017-Jan-15 21:30N 38°28' E 015°55'0 0.0
2017-Jan-15 20:33N 38°28' E 015°55'0 0.0
2017-Jan-15 19:33N 38°28' E 015°55'0 0.0
2017-Jan-15 18:21N 38°28' E 015°55'0 0.0
2017-Jan-15 17:31N 38°28' E 015°55'0 0.0
2017-Jan-15 16:31N 38°28' E 015°55'0 0.0
2017-Jan-15 15:31N 38°28' E 015°55'0 0.0
2017-Jan-15 14:31N 38°28' E 015°55'0 0.0
2017-Jan-15 13:27N 38°28' E 015°55'0 0.0
2017-Jan-15 12:24N 38°28' E 015°55'0 0.0
2017-Jan-15 11:33N 38°28' E 015°55'0 0.0
2017-Jan-15 10:27N 38°28' E 015°55'0 0.0
2017-Jan-15 09:33N 38°28' E 015°55'0 0.0
2017-Jan-15 08:33N 38°28' E 015°55'0 0.0
2017-Jan-15 07:33N 38°28' E 015°55'0 0.0
2017-Jan-15 06:15N 38°28' E 015°55'0 0.0
2017-Jan-15 05:30N 38°28' E 015°55'0 0.0
2017-Jan-15 04:30N 38°28' E 015°55'0 0.0
2017-Jan-15 03:24N 38°28' E 015°55'0 0.0
2017-Jan-15 02:30N 38°28' E 015°55'0 0.0
2017-Jan-15 01:24N 38°28' E 015°55'0 0.0
2017-Jan-15 00:27N 38°28' E 015°55'0 0.0
2017-Jan-14 23:30N 38°28' E 015°55'0 0.0
2017-Jan-14 22:18N 38°28' E 015°55'0 0.0
2017-Jan-14 21:30N 38°28' E 015°55'0 0.0
2017-Jan-14 20:24N 38°28' E 015°55'0 0.0
2017-Jan-14 19:29N 38°28' E 015°55'0 0.3
2017-Jan-14 18:33N 38°28' E 015°54'4 3.9
2017-Jan-14 17:33N 38°28' E 015°49'3 3.1
2017-Jan-14 16:33N 38°29' E 015°46'1 0.8
2017-Jan-14 15:33N 38°28' E 015°46'10 9.8
2017-Jan-14 14:33N 38°31' E 015°34'3 2.9
2017-Jan-14 13:33N 38°32' E 015°30'7 7.0
2017-Jan-14 12:32N 38°32' E 015°21'1 0.6
2017-Jan-14 11:34N 38°32' E 015°22'2 1.8
2017-Jan-14 10:33N 38°31' E 015°24'1 1.5
2017-Jan-14 09:33N 38°30' E 015°26'2 1.9
2017-Jan-14 08:34N 38°30' E 015°28'2 2.2
2017-Jan-14 07:34N 38°29' E 015°25'8 7.6
2017-Jan-14 06:33N 38°31' E 015°16'1 0.8
2017-Jan-14 05:33N 38°32' E 015°17'2 1.5
2017-Jan-14 04:33N 38°32' E 015°19'2 2.0
2017-Jan-14 03:34N 38°33' E 015°21'12 2.9
2017-Jan-13 23:33N 38°33' E 015°36'3 2.5
2017-Jan-13 22:33N 38°34' E 015°39'2 1.6
2017-Jan-13 21:33N 38°34' E 015°41'2 2.3
2017-Jan-13 20:33N 38°35' E 015°38'2 2.3
2017-Jan-13 19:33N 38°35' E 015°36'2 1.7
2017-Jan-13 18:04N 38°34' E 015°33'1 1.2
2017-Jan-13 17:33N 38°34' E 015°32'1 1.2
2017-Jan-13 16:33N 38°34' E 015°30'1 1.1
2017-Jan-13 15:34N 38°33' E 015°29'1 1.1
2017-Jan-13 14:33N 38°33' E 015°28'1 1.3
2017-Jan-13 13:31N 38°32' E 015°27'1 1.2
2017-Jan-13 12:34N 38°31' E 015°26'1 0.8
2017-Jan-13 11:34N 38°31' E 015°25'1 0.8
2017-Jan-13 10:31N 38°30' E 015°24'3 3.3
2017-Jan-13 09:32N 38°33' E 015°26'1313.4
2017-Jan-13 08:33N 38°43' E 015°37'1312.3
2017-Jan-13 07:32N 38°52' E 015°48'2 1.2
2017-Jan-13 06:20N 38°52' E 015°46'1 1.3
2017-Jan-13 05:33N 38°51' E 015°45'1 1.2
2017-Jan-13 04:33N 38°51' E 015°44'1 1.4
2017-Jan-13 03:34N 38°49' E 015°43'1 1.3
2017-Jan-13 02:33N 38°48' E 015°42'1 1.3
2017-Jan-13 01:33N 38°47' E 015°41'1 1.3
2017-Jan-13 00:31N 38°46' E 015°40'1 1.2
2017-Jan-12 23:33N 38°45' E 015°39'1 1.4
2017-Jan-12 22:34N 38°44' E 015°38'1 1.4
2017-Jan-12 21:33N 38°43' E 015°37'2 1.2
2017-Jan-12 19:33N 38°40' E 015°37'1 0.9
2017-Jan-12 18:33N 38°39' E 015°37'1 0.6
2017-Jan-12 17:32N 38°39' E 015°37'1 0.5
2017-Jan-12 16:34N 38°38' E 015°37'0 0.5
2017-Jan-12 15:34N 38°38' E 015°37'0 0.5
2017-Jan-12 14:33N 38°37' E 015°36'1 0.6
2017-Jan-12 13:33N 38°37' E 015°36'1 0.6
2017-Jan-12 12:33N 38°36' E 015°36'9 8.7
2017-Jan-12 11:33N 38°28' E 015°40'3 2.7
2017-Jan-12 10:32N 38°26' E 015°41'1 0.6
2017-Jan-12 09:33N 38°26' E 015°41'1 0.6
2017-Jan-12 08:34N 38°27' E 015°41'0 0.5
2017-Jan-12 07:34N 38°27' E 015°41'0 0.4
2017-Jan-12 06:34N 38°28' E 015°41'0 0.4
2017-Jan-12 05:33N 38°28' E 015°40'0 0.4
2017-Jan-12 04:34N 38°28' E 015°40'0 0.5
2017-Jan-12 03:30N 38°29' E 015°40'0 0.4
2017-Jan-12 02:33N 38°29' E 015°39'0 0.4
2017-Jan-12 01:33N 38°29' E 015°39'1 0.5
2017-Jan-12 00:33N 38°29' E 015°38'1 0.6
2017-Jan-11 23:33N 38°29' E 015°37'1 0.6
2017-Jan-11 22:33N 38°30' E 015°37'1 0.5
2017-Jan-11 21:34N 38°30' E 015°36'0 0.4
2017-Jan-11 20:32N 38°30' E 015°36'0 0.4
2017-Jan-11 19:33N 38°30' E 015°35'0 0.4
2017-Jan-11 18:33N 38°30' E 015°35'0 0.1
2017-Jan-11 17:33N 38°30' E 015°35'0 0.3
2017-Jan-11 16:33N 38°30' E 015°35'0 0.5
2017-Jan-11 15:34N 38°30' E 015°35'7 7.3
2017-Jan-11 14:34N 38°23' E 015°32'1110.4
2017-Jan-11 13:32N 38°21' E 015°19'1010.3
2017-Jan-11 12:32N 38°19' E 015°06'1010.4
2017-Jan-11 11:32N 38°18' E 014°53'1010.1
2017-Jan-11 10:33N 38°18' E 014°40'10 9.7
2017-Jan-11 09:33N 38°19' E 014°28'13 9.6
2017-Jan-11 08:09N 38°19' E 014°11'6 9.4
2017-Jan-11 07:34N 38°19' E 014°03'10 9.5
2017-Jan-11 06:33N 38°19' E 013°51'1010.2
2017-Jan-11 05:33N 38°20' E 013°38'10 9.8
2017-Jan-11 04:33N 38°20' E 013°26'10 9.6
2017-Jan-11 03:33N 38°20' E 013°13'1010.2
2017-Jan-11 02:33N 38°19' E 013°01'1111.1
2017-Jan-11 01:32N 38°19' E 012°46'10 9.9
2017-Jan-11 00:34N 38°18' E 012°34'  

Dump ship's entire track history